Stinson Beach, CA (94970)

07:35 PM PST am 23. Februar 2017 (GMT -0800)
Muir beach | | Change Station

Höhe 436 ft 37.86 °N, 122.58 °W | Updated 6 seconds ago

Heiter
Heiter
44.1 °F
gefühlte 43 °F
N
3.4
Wind Wechselnd Wind aus Nord-Nordwest
Gusts 4.9 mph

Heute
Max. -- | schwach -- °F
--% Regenrisiko
Gestern
Max. -- | schwach -- °F
Precip. -- inch
Druck 30.21 inch
Sichtweite 10.0 Meilen
Wolken Heiter
Windchill 43 °F
Taupunkt 32 °F
Feuchtigkeit 61%
Regen 0.00 inch
Schneehöhe Nicht verfügbar..
6:49 AM 5:58 PM
Letztes Viertel, 7% visible
METAR KO69 240315Z AUTO 28003KT 10SM CLR 07/03 A3021 RMK AO1 P0003
Druck 30.21 inch
Sichtweite 10.0 Meilen
Wolken Heiter
Windchill 43 °F
Taupunkt 32 °F
Feuchtigkeit 61%
Regen 0.00 inch
Schneehöhe Nicht verfügbar..
6:49 AM 5:58 PM
Letztes Viertel, 7% visible
METAR KO69 240315Z AUTO 28003KT 10SM CLR 07/03 A3021 RMK AO1 P0003

Get Your Daily Forecast Email!

Thanks for signing up!

Be on the lookout for a verification email in your inbox.

You'll start receiving the daily forecast at 8 AM.

×

10-Day Weather Forecast

Almanac

Astronomie

Feb. 23, 2017 Aufgang Untergang
Genaue Zeit
Bürgerliche Dämmerung
Nautische Dämmerung
Astronomische Dämmerung
Mond
Länge des sichtbaren Lichts
Tageslänge
Tomorrow will be .
, % of the Moon is Illuminated

Heutige Rekorde

State Highs State Lows

Community

WunderPhotos

Upload Photos

1,962,540 Fotos hochgeladen!

WunderBlog® & News

Nearby

Luftqualität

  Luftqualität LQ Index Schadstoff
Not available.

Schneehöhe

Station Depth Höhe

Erdbebenaktivität

Stadt Distance Mag. Time & Date
Minimum magnitude displayed is 2.5.

küstennahe Wassertemperaturen

Ort Temperatur

Stations

Wetterstationen in der Umgebung

Stationsstandort Temp. Windchill Taupunkt Feuchtigkeit Wind Precip. Höhe Aktualisiert Art
                   

Watches & Warnings

There are currently no watches in effect.